createdAt,value
2023-11-26T00:00:04.563Z,65.53
2023-11-26T00:02:04.783Z,64.73
2023-11-26T00:04:05.014Z,64.62
2023-11-26T00:06:07.881Z,63.88
2023-11-26T00:08:04.612Z,63.66
2023-11-26T00:10:04.573Z,63.43
2023-11-26T00:12:04.614Z,63.29
2023-11-26T00:14:04.658Z,63.66
2023-11-26T00:16:04.607Z,63.57
2023-11-26T00:18:04.706Z,63.55
2023-11-26T00:20:04.660Z,63.03
2023-11-26T00:23:04.644Z,63.15
2023-11-26T00:25:04.660Z,62.85
2023-11-26T00:28:04.640Z,62.19
2023-11-26T00:30:04.654Z,62.49
2023-11-26T00:32:04.683Z,62.15
2023-11-26T00:34:04.689Z,62.07
2023-11-26T00:36:04.634Z,62.12
2023-11-26T00:38:04.706Z,62.44
2023-11-26T00:40:04.676Z,62.80
2023-11-26T00:42:04.665Z,63.36
2023-11-26T00:44:04.650Z,63.05
2023-11-26T00:46:04.711Z,63.76
2023-11-26T00:48:04.807Z,63.83
2023-11-26T00:50:04.861Z,63.72
2023-11-26T00:52:04.676Z,63.30
2023-11-26T00:54:04.708Z,63.40
2023-11-26T00:56:04.742Z,63.57
2023-11-26T00:58:04.733Z,63.54
2023-11-26T01:00:04.688Z,63.37
2023-11-26T01:02:04.763Z,63.56
2023-11-26T01:04:04.846Z,64.06
2023-11-26T01:06:04.743Z,63.80
2023-11-26T01:08:04.743Z,63.63
2023-11-26T01:10:04.729Z,63.83
2023-11-26T01:12:04.859Z,64.50
2023-11-26T01:14:04.806Z,64.58
2023-11-26T01:16:04.730Z,64.27
2023-11-26T01:18:05.024Z,64.40
2023-11-26T01:20:08.675Z,64.03
2023-11-26T01:22:04.779Z,63.75
2023-11-26T01:24:04.776Z,64.15
2023-11-26T01:26:04.835Z,64.07
2023-11-26T01:28:04.758Z,64.33
2023-11-26T01:30:04.794Z,64.41
2023-11-26T01:32:04.851Z,64.43
2023-11-26T01:34:04.836Z,64.74
2023-11-26T01:36:04.773Z,64.52
2023-11-26T01:38:04.896Z,64.39
2023-11-26T01:40:04.811Z,64.06
2023-11-26T01:42:04.818Z,64.44
2023-11-26T01:44:04.863Z,64.59
2023-11-26T01:46:04.824Z,64.58
2023-11-26T01:48:04.881Z,64.69
2023-11-26T01:50:04.867Z,64.84
2023-11-26T01:53:04.883Z,65.56
2023-11-26T01:55:04.864Z,64.99
2023-11-26T01:57:09.034Z,65.52
2023-11-26T01:59:04.847Z,65.45
2023-11-26T02:01:04.973Z,65.65
2023-11-26T02:03:04.996Z,65.48
2023-11-26T02:05:04.864Z,65.24
2023-11-26T02:07:04.864Z,65.11
2023-11-26T02:09:04.895Z,65.03
2023-11-26T02:11:04.932Z,64.77
2023-11-26T02:13:04.911Z,64.68
2023-11-26T02:15:04.881Z,64.42
2023-11-26T02:17:04.945Z,63.84
2023-11-26T02:19:04.912Z,64.02
2023-11-26T02:21:04.935Z,63.89
2023-11-26T02:23:05.015Z,64.68
2023-11-26T02:25:04.894Z,64.35
2023-11-26T02:28:04.912Z,64.58
2023-11-26T02:30:04.964Z,64.77
2023-11-26T02:32:04.990Z,64.71
2023-11-26T02:34:09.428Z,64.63
2023-11-26T02:36:04.905Z,64.30
2023-11-26T02:38:04.980Z,64.20
2023-11-26T02:40:04.962Z,64.11
2023-11-26T02:42:04.971Z,64.09
2023-11-26T02:44:04.975Z,64.28
2023-11-26T02:46:05.012Z,64.54
2023-11-26T02:49:04.954Z,64.78
2023-11-26T02:51:04.980Z,64.72
2023-11-26T02:53:05.041Z,65.17
2023-11-26T02:55:05.009Z,64.93
2023-11-26T02:57:04.979Z,64.78
2023-11-26T02:59:05.026Z,64.36
2023-11-26T03:01:05.024Z,64.04
2023-11-26T03:03:05.064Z,63.94
2023-11-26T03:05:05.056Z,63.85
2023-11-26T03:07:05.013Z,63.83
2023-11-26T03:09:05.022Z,63.86
2023-11-26T03:11:09.906Z,63.90
2023-11-26T03:13:05.044Z,63.89
2023-11-26T03:15:05.015Z,63.96
2023-11-26T03:17:05.041Z,63.77
2023-11-26T03:19:05.052Z,63.51
2023-11-26T03:21:05.054Z,63.62
2023-11-26T03:23:05.110Z,63.63
2023-11-26T03:25:05.043Z,63.41
2023-11-26T03:27:05.106Z,63.12
2023-11-26T03:29:05.113Z,63.51
2023-11-26T03:31:05.095Z,63.55
2023-11-26T03:33:05.238Z,63.56
2023-11-26T03:35:05.098Z,63.33
2023-11-26T03:37:05.112Z,63.43
2023-11-26T03:39:05.132Z,63.31
2023-11-26T03:41:05.098Z,63.28
2023-11-26T03:43:05.089Z,63.66
2023-11-26T03:45:05.239Z,63.80
2023-11-26T03:47:05.150Z,64.15
2023-11-26T03:49:05.085Z,64.23
2023-11-26T03:51:05.108Z,65.06
2023-11-26T03:54:05.114Z,65.48
2023-11-26T03:56:05.136Z,65.67
2023-11-26T03:58:05.146Z,65.39
2023-11-26T04:00:05.159Z,66.22
2023-11-26T04:02:05.291Z,66.00
2023-11-26T04:04:05.163Z,65.97
2023-11-26T04:06:05.178Z,65.56
2023-11-26T04:08:05.205Z,65.66
2023-11-26T04:10:05.170Z,65.30
2023-11-26T04:13:05.182Z,65.31
2023-11-26T04:15:06.064Z,65.27
2023-11-26T04:17:05.408Z,65.13
2023-11-26T04:19:05.210Z,64.95
2023-11-26T04:21:05.190Z,65.39
2023-11-26T04:23:05.281Z,65.48
2023-11-26T04:25:05.175Z,65.36
2023-11-26T04:27:05.180Z,65.32
2023-11-26T04:29:05.256Z,66.04
2023-11-26T04:31:05.284Z,65.96
2023-11-26T04:33:05.235Z,65.85
2023-11-26T04:35:05.261Z,65.42
2023-11-26T04:37:05.241Z,64.72
2023-11-26T04:39:05.266Z,64.41
2023-11-26T04:41:05.217Z,64.28
2023-11-26T04:43:05.231Z,64.67
2023-11-26T04:45:05.260Z,63.90
2023-11-26T04:47:05.330Z,63.85
2023-11-26T04:49:05.264Z,63.64
2023-11-26T04:51:05.255Z,63.64
2023-11-26T04:53:05.285Z,63.63
2023-11-26T04:55:05.305Z,63.86
2023-11-26T04:57:05.316Z,63.89
2023-11-26T04:59:06.046Z,63.64
2023-11-26T05:01:05.269Z,63.64
2023-11-26T05:03:05.528Z,63.89
2023-11-26T05:05:05.347Z,63.96
2023-11-26T05:07:05.280Z,64.15
2023-11-26T05:09:05.319Z,63.76
2023-11-26T05:11:05.391Z,63.52
2023-11-26T05:13:05.382Z,63.07
2023-11-26T05:15:05.337Z,63.40
2023-11-26T05:17:05.365Z,63.66
2023-11-26T05:19:05.349Z,63.71
2023-11-26T05:23:05.400Z,63.73
2023-11-26T05:25:05.363Z,63.58
2023-11-26T05:27:05.383Z,63.57
2023-11-26T05:29:05.424Z,63.36
2023-11-26T05:31:05.537Z,63.11
2023-11-26T05:33:05.458Z,63.32
2023-11-26T05:35:05.391Z,63.32
2023-11-26T05:37:05.404Z,63.92
2023-11-26T05:39:05.394Z,63.63
2023-11-26T05:41:05.514Z,63.94
2023-11-26T05:43:05.416Z,64.09
2023-11-26T05:45:05.391Z,63.88
2023-11-26T05:47:05.449Z,64.04
2023-11-26T05:49:05.545Z,64.31
2023-11-26T05:51:06.526Z,64.21
2023-11-26T05:55:05.439Z,64.02
2023-11-26T05:57:05.455Z,64.17
2023-11-26T05:59:05.447Z,64.17
2023-11-26T06:01:05.500Z,63.92
2023-11-26T06:03:05.496Z,64.03
2023-11-26T06:05:05.455Z,64.25
2023-11-26T06:08:05.447Z,63.28
2023-11-26T06:10:05.471Z,63.43
2023-11-26T06:12:05.442Z,63.26
2023-11-26T06:14:05.495Z,63.56
2023-11-26T06:16:05.489Z,63.02
2023-11-26T06:18:05.485Z,62.47
2023-11-26T06:20:05.488Z,62.55
2023-11-26T06:22:05.461Z,62.28
2023-11-26T06:24:05.457Z,62.16
2023-11-26T06:27:05.467Z,62.87
2023-11-26T06:29:05.522Z,61.83
2023-11-26T06:31:05.538Z,62.36
2023-11-26T06:33:05.569Z,61.76
2023-11-26T06:35:05.494Z,61.80
2023-11-26T06:37:05.510Z,61.61
2023-11-26T06:39:05.523Z,61.80
2023-11-26T06:41:05.529Z,61.96
2023-11-26T06:43:05.502Z,62.09
2023-11-26T06:45:05.506Z,62.24
2023-11-26T06:47:05.620Z,61.72
2023-11-26T06:49:05.552Z,61.73
2023-11-26T06:51:05.538Z,62.00
2023-11-26T06:53:05.529Z,62.05
2023-11-26T06:55:05.577Z,61.69
2023-11-26T06:57:05.571Z,62.01
2023-11-26T06:59:05.604Z,61.92
2023-11-26T07:01:05.545Z,61.98
2023-11-26T07:03:05.569Z,61.54
2023-11-26T07:06:05.569Z,61.82
2023-11-26T07:09:05.584Z,61.18
2023-11-26T07:11:05.582Z,61.56
2023-11-26T07:13:05.614Z,61.11
2023-11-26T07:15:05.646Z,60.97
2023-11-26T07:17:05.579Z,60.80
2023-11-26T07:19:05.631Z,60.66
2023-11-26T07:21:05.654Z,60.81
2023-11-26T07:24:05.619Z,60.99
2023-11-26T07:26:05.649Z,60.92
2023-11-26T07:28:05.653Z,60.69
2023-11-26T07:30:05.632Z,60.77
2023-11-26T07:32:05.600Z,60.54
2023-11-26T07:34:05.649Z,60.43
2023-11-26T07:36:05.676Z,60.14
2023-11-26T07:38:05.687Z,60.14
2023-11-26T07:40:05.652Z,60.05
2023-11-26T07:44:05.690Z,60.55
2023-11-26T07:46:05.764Z,60.47
2023-11-26T07:48:05.711Z,60.34
2023-11-26T07:50:05.675Z,60.25
2023-11-26T07:53:05.670Z,60.25
2023-11-26T07:55:05.725Z,60.61
2023-11-26T07:58:05.691Z,59.90
2023-11-26T08:00:05.749Z,60.42
2023-11-26T08:03:05.749Z,60.62
2023-11-26T08:05:05.788Z,60.76
2023-11-26T08:08:05.721Z,61.46
2023-11-26T08:11:05.723Z,60.83
2023-11-26T08:13:05.782Z,60.92
2023-11-26T08:15:05.759Z,60.49
2023-11-26T08:17:05.751Z,60.90
2023-11-26T08:19:05.726Z,60.32
2023-11-26T08:21:05.746Z,59.88
2023-11-26T08:23:05.771Z,60.11
2023-11-26T08:25:05.781Z,59.83
2023-11-26T08:27:05.769Z,59.96
2023-11-26T08:29:05.770Z,59.53
2023-11-26T08:31:05.795Z,58.99
2023-11-26T08:33:05.832Z,59.03
2023-11-26T08:35:05.778Z,58.96
2023-11-26T08:37:10.253Z,58.59
2023-11-26T08:39:05.784Z,59.72
2023-11-26T08:41:08.414Z,59.58
2023-11-26T08:43:05.841Z,59.35
2023-11-26T08:45:05.816Z,59.34
2023-11-26T08:47:05.806Z,59.58
2023-11-26T08:49:05.839Z,58.80
2023-11-26T08:51:05.858Z,58.43
2023-11-26T08:53:05.842Z,57.97
2023-11-26T08:55:05.851Z,55.31
2023-11-26T08:57:05.866Z,53.38
2023-11-26T08:59:05.875Z,52.62
2023-11-26T09:01:05.849Z,53.50
2023-11-26T09:03:05.841Z,54.14
2023-11-26T09:05:05.891Z,54.50
2023-11-26T09:07:05.881Z,54.38
2023-11-26T09:09:05.871Z,54.24
2023-11-26T09:11:05.870Z,54.58
2023-11-26T09:13:06.007Z,54.60
2023-11-26T09:15:05.920Z,54.05
2023-11-26T09:17:05.921Z,54.11
2023-11-26T09:19:05.892Z,54.31
2023-11-26T09:21:05.889Z,53.74
2023-11-26T09:23:05.920Z,54.02
2023-11-26T09:25:05.927Z,54.35
2023-11-26T09:27:05.910Z,53.81
2023-11-26T09:29:05.897Z,52.99
2023-11-26T09:31:05.949Z,53.16
2023-11-26T09:33:06.022Z,52.83
2023-11-26T09:35:05.932Z,52.97
2023-11-26T09:38:05.979Z,52.62
2023-11-26T09:40:05.969Z,52.72
2023-11-26T09:42:05.926Z,52.41
2023-11-26T09:45:05.937Z,51.62
2023-11-26T09:47:05.954Z,51.44
2023-11-26T09:49:05.987Z,50.71
2023-11-26T09:51:06.007Z,50.16
2023-11-26T09:53:05.968Z,50.13
2023-11-26T09:55:09.253Z,48.54
2023-11-26T09:57:06.026Z,48.54
2023-11-26T09:59:06.032Z,49.06
2023-11-26T10:01:06.020Z,48.85
2023-11-26T10:03:06.247Z,49.63
2023-11-26T10:05:06.017Z,49.84
2023-11-26T10:07:06.022Z,50.00
2023-11-26T10:09:06.002Z,49.95
2023-11-26T10:11:06.032Z,50.24
2023-11-26T10:13:06.562Z,51.05
2023-11-26T10:15:06.051Z,50.66
2023-11-26T10:17:06.054Z,50.79
2023-11-26T10:19:06.113Z,50.23
2023-11-26T10:21:06.049Z,51.24
2023-11-26T10:23:06.075Z,51.29
2023-11-26T10:25:06.072Z,52.09
2023-11-26T10:27:06.050Z,51.66
2023-11-26T10:30:06.085Z,51.36
2023-11-26T10:32:09.674Z,51.38
2023-11-26T10:34:06.070Z,51.83
2023-11-26T10:36:06.111Z,51.41
2023-11-26T10:38:06.109Z,51.08
2023-11-26T10:40:06.083Z,50.77
2023-11-26T10:42:06.080Z,50.39
2023-11-26T10:44:06.143Z,50.37
2023-11-26T10:46:06.170Z,50.65
2023-11-26T10:48:06.122Z,50.65
2023-11-26T10:50:06.112Z,51.10
2023-11-26T10:52:06.173Z,51.24
2023-11-26T10:54:06.147Z,51.23
2023-11-26T10:56:06.159Z,50.97
2023-11-26T10:59:06.180Z,50.81
2023-11-26T11:01:06.236Z,51.13
2023-11-26T11:03:06.207Z,51.28
2023-11-26T11:05:06.169Z,51.52
2023-11-26T11:07:06.252Z,51.83
2023-11-26T11:09:10.114Z,51.89
2023-11-26T11:11:06.158Z,51.25
2023-11-26T11:13:06.218Z,51.60
2023-11-26T11:15:06.180Z,51.85
2023-11-26T11:17:06.252Z,51.61
2023-11-26T11:21:06.178Z,51.93
2023-11-26T11:23:06.227Z,52.23
2023-11-26T11:25:06.227Z,51.92
2023-11-26T11:27:06.186Z,52.09
2023-11-26T11:29:06.193Z,51.71
2023-11-26T11:31:06.299Z,52.18
2023-11-26T11:33:06.251Z,52.14
2023-11-26T11:35:06.208Z,52.25
2023-11-26T11:37:06.261Z,52.51
2023-11-26T11:39:06.260Z,52.17
2023-11-26T11:41:06.257Z,52.50
2023-11-26T11:43:06.258Z,52.82
2023-11-26T11:45:06.241Z,52.71
2023-11-26T11:47:06.280Z,52.20
2023-11-26T11:49:06.270Z,51.88
2023-11-26T11:51:06.310Z,52.15
2023-11-26T11:53:06.258Z,52.63
2023-11-26T11:55:06.254Z,52.17
2023-11-26T11:57:06.299Z,51.93
2023-11-26T11:59:06.321Z,52.24
2023-11-26T12:01:06.315Z,52.12
2023-11-26T12:03:06.283Z,52.30
2023-11-26T12:05:06.453Z,52.44
2023-11-26T12:07:06.334Z,52.16
2023-11-26T12:09:06.351Z,52.24
2023-11-26T12:11:06.292Z,52.08
2023-11-26T12:13:06.352Z,51.77
2023-11-26T12:15:06.332Z,52.18
2023-11-26T12:17:06.337Z,52.28
2023-11-26T12:19:06.317Z,52.45
2023-11-26T12:21:06.299Z,52.05
2023-11-26T12:23:11.306Z,51.95
2023-11-26T12:25:06.370Z,52.06
2023-11-26T12:27:06.337Z,52.36
2023-11-26T12:29:06.363Z,51.59
2023-11-26T12:31:06.360Z,51.68
2023-11-26T12:33:06.395Z,51.70
2023-11-26T12:35:06.387Z,51.32
2023-11-26T12:37:06.354Z,51.14
2023-11-26T12:39:06.364Z,50.78
2023-11-26T12:42:06.377Z,50.83
2023-11-26T12:44:06.373Z,50.63
2023-11-26T12:46:06.438Z,50.87
2023-11-26T12:48:06.456Z,50.53
2023-11-26T12:50:06.389Z,50.53
2023-11-26T12:52:06.392Z,50.38
2023-11-26T12:54:06.431Z,50.02
2023-11-26T12:56:06.450Z,50.28
2023-11-26T12:58:06.462Z,50.50
2023-11-26T13:02:06.446Z,50.47
2023-11-26T13:05:06.438Z,50.64
2023-11-26T13:07:06.465Z,50.54
2023-11-26T13:09:06.467Z,50.62
2023-11-26T13:11:06.496Z,50.82
2023-11-26T13:13:06.562Z,50.99
2023-11-26T13:15:06.495Z,51.32
2023-11-26T13:17:06.491Z,51.19
2023-11-26T13:19:06.569Z,51.14
2023-11-26T13:21:06.450Z,51.15
2023-11-26T13:23:06.466Z,51.17
2023-11-26T13:25:06.509Z,51.36
2023-11-26T13:27:06.536Z,50.98
2023-11-26T13:29:06.474Z,50.94
2023-11-26T13:31:06.530Z,51.12
2023-11-26T13:33:06.596Z,51.06
2023-11-26T13:35:06.542Z,50.33
2023-11-26T13:37:06.559Z,50.31
2023-11-26T13:39:06.528Z,50.30
2023-11-26T13:41:06.525Z,50.35
2023-11-26T13:43:06.549Z,50.73
2023-11-26T13:45:13.189Z,51.02
2023-11-26T13:47:06.579Z,51.36
2023-11-26T13:49:06.577Z,50.80
2023-11-26T13:52:06.548Z,51.27
2023-11-26T13:56:06.572Z,51.48
2023-11-26T13:58:06.642Z,51.42
2023-11-26T14:00:06.556Z,51.26
2023-11-26T14:02:06.679Z,51.32
2023-11-26T14:06:06.614Z,51.69
2023-11-26T14:08:06.609Z,51.77
2023-11-26T14:12:06.626Z,51.05
2023-11-26T14:15:06.598Z,51.49
2023-11-26T14:17:06.616Z,52.06
2023-11-26T14:23:06.628Z,52.30
2023-11-26T14:28:06.697Z,52.34
2023-11-26T14:30:06.634Z,52.58
2023-11-26T14:32:06.695Z,52.58
2023-11-26T14:34:06.762Z,52.49
2023-11-26T14:36:06.650Z,52.52
2023-11-26T14:39:06.686Z,52.43
2023-11-26T14:41:06.662Z,52.48
2023-11-26T14:43:06.709Z,52.30
2023-11-26T14:45:06.711Z,52.25
2023-11-26T14:47:06.733Z,52.44
2023-11-26T14:49:06.760Z,52.30
2023-11-26T14:51:06.683Z,52.39
2023-11-26T14:53:06.727Z,52.57
2023-11-26T14:55:06.762Z,52.70
2023-11-26T14:57:06.695Z,52.70
2023-11-26T15:00:06.736Z,52.86
2023-11-26T15:02:06.812Z,53.13
2023-11-26T15:06:06.780Z,52.84
2023-11-26T15:08:06.761Z,52.73
2023-11-26T15:10:06.780Z,52.83
2023-11-26T15:12:06.744Z,53.08
2023-11-26T15:14:06.789Z,53.25
2023-11-26T15:18:07.230Z,53.50
2023-11-26T15:20:06.747Z,53.10
2023-11-26T15:22:06.835Z,53.18
2023-11-26T15:24:06.811Z,53.39
2023-11-26T15:26:06.883Z,53.43
2023-11-26T15:28:06.821Z,53.54
2023-11-26T15:30:06.776Z,53.65
2023-11-26T15:32:09.176Z,53.90
2023-11-26T15:34:06.851Z,53.97
2023-11-26T15:36:06.782Z,54.40
2023-11-26T15:38:09.195Z,54.11
2023-11-26T15:40:06.850Z,54.52
2023-11-26T15:42:06.842Z,54.86
2023-11-26T15:44:06.820Z,54.95
2023-11-26T15:46:06.860Z,54.85
2023-11-26T15:48:06.880Z,54.66
2023-11-26T15:50:06.841Z,55.29
2023-11-26T15:53:06.867Z,55.07
2023-11-26T15:55:06.933Z,55.03
2023-11-26T15:59:06.848Z,55.36
2023-11-26T16:01:06.952Z,55.06
2023-11-26T16:03:06.971Z,55.68
2023-11-26T16:05:06.898Z,55.93
2023-11-26T16:07:06.932Z,55.78
2023-11-26T16:09:07.012Z,55.70
2023-11-26T16:11:06.924Z,55.73
2023-11-26T16:13:06.975Z,55.55
2023-11-26T16:15:06.874Z,56.02
2023-11-26T16:17:21.224Z,55.51
2023-11-26T16:19:07.027Z,54.71
2023-11-26T16:21:06.920Z,54.62
2023-11-26T16:23:06.915Z,54.75
2023-11-26T16:25:06.970Z,54.85
2023-11-26T16:27:06.966Z,55.74
2023-11-26T16:29:06.956Z,56.74
2023-11-26T16:31:07.677Z,57.45
2023-11-26T16:33:06.983Z,57.47
2023-11-26T16:35:06.961Z,58.86
2023-11-26T16:37:07.032Z,59.16
2023-11-26T16:39:06.992Z,58.24
2023-11-26T16:41:06.938Z,58.16
2023-11-26T16:43:06.954Z,58.04
2023-11-26T16:45:07.004Z,57.62
2023-11-26T16:47:07.052Z,57.42
2023-11-26T16:49:07.022Z,57.20
2023-11-26T16:51:06.981Z,57.64
2023-11-26T16:53:06.970Z,57.99
2023-11-26T16:55:07.049Z,57.77
2023-11-26T16:57:07.028Z,57.34
2023-11-26T16:59:06.977Z,57.14
2023-11-26T17:01:07.307Z,56.73
2023-11-26T17:03:07.136Z,56.68
2023-11-26T17:05:07.343Z,56.61
2023-11-26T17:07:07.026Z,56.58
2023-11-26T17:09:07.022Z,57.37
2023-11-26T17:11:07.061Z,57.62
2023-11-26T17:13:07.122Z,57.53
2023-11-26T17:15:07.049Z,57.30
2023-11-26T17:17:07.164Z,57.10
2023-11-26T17:19:07.177Z,56.97
2023-11-26T17:21:07.077Z,57.17
2023-11-26T17:23:07.071Z,57.50
2023-11-26T17:25:07.121Z,57.42
2023-11-26T17:27:07.087Z,58.00
2023-11-26T17:29:07.098Z,58.15
2023-11-26T17:31:07.150Z,58.21
2023-11-26T17:33:07.153Z,58.36
2023-11-26T17:35:07.069Z,58.43
2023-11-26T17:37:07.125Z,58.95
2023-11-26T17:39:07.121Z,59.24
2023-11-26T17:41:07.084Z,59.31
2023-11-26T17:43:07.226Z,59.41
2023-11-26T17:45:07.137Z,59.32
2023-11-26T17:47:07.145Z,59.42
2023-11-26T17:51:07.147Z,59.42
2023-11-26T17:53:10.677Z,59.60
2023-11-26T17:55:07.172Z,59.78
2023-11-26T17:57:07.128Z,59.65
2023-11-26T17:59:07.134Z,59.54
2023-11-26T18:01:07.279Z,59.17
2023-11-26T18:03:07.160Z,59.06
2023-11-26T18:05:07.183Z,58.80
2023-11-26T18:07:07.186Z,58.83
2023-11-26T18:09:07.201Z,58.89
2023-11-26T18:11:07.219Z,58.72
2023-11-26T18:13:07.295Z,58.37
2023-11-26T18:15:07.193Z,58.53
2023-11-26T18:17:07.199Z,58.51
2023-11-26T18:19:07.231Z,58.55
2023-11-26T18:21:07.239Z,58.49
2023-11-26T18:23:07.182Z,58.42
2023-11-26T18:25:07.232Z,58.33
2023-11-26T18:27:07.218Z,59.03
2023-11-26T18:29:07.602Z,59.11
2023-11-26T18:31:07.326Z,59.18
2023-11-26T18:33:07.260Z,58.95
2023-11-26T18:35:07.243Z,59.10
2023-11-26T18:37:07.312Z,59.40
2023-11-26T18:39:07.268Z,59.20
2023-11-26T18:41:07.242Z,59.29
2023-11-26T18:43:07.258Z,58.89
2023-11-26T18:45:07.277Z,59.11
2023-11-26T18:47:07.290Z,59.16
2023-11-26T18:49:07.281Z,59.05
2023-11-26T18:51:07.260Z,59.47
2023-11-26T18:53:07.297Z,59.57
2023-11-26T18:55:07.339Z,59.34
2023-11-26T18:57:07.264Z,59.48
2023-11-26T18:59:07.292Z,59.66
2023-11-26T19:01:07.441Z,59.37
2023-11-26T19:03:07.425Z,59.50
2023-11-26T19:05:07.319Z,59.30
2023-11-26T19:08:07.337Z,59.05
2023-11-26T19:10:07.355Z,59.12
2023-11-26T19:12:07.344Z,59.21
2023-11-26T19:15:07.311Z,59.41
2023-11-26T19:17:07.352Z,59.51
2023-11-26T19:19:07.474Z,59.36
2023-11-26T19:22:07.513Z,59.46
2023-11-26T19:24:07.372Z,59.53
2023-11-26T19:26:07.370Z,58.94
2023-11-26T19:28:07.393Z,59.05
2023-11-26T19:30:07.348Z,59.46
2023-11-26T19:32:07.408Z,59.55
2023-11-26T19:34:07.505Z,59.65
2023-11-26T19:36:07.396Z,59.52
2023-11-26T19:38:07.381Z,59.71
2023-11-26T19:40:07.443Z,59.72
2023-11-26T19:42:07.421Z,59.93
2023-11-26T19:44:07.391Z,59.87
2023-11-26T19:46:07.459Z,59.93
2023-11-26T19:52:07.447Z,59.80
2023-11-26T19:54:07.410Z,59.81
2023-11-26T19:56:07.438Z,59.95
2023-11-26T19:58:07.492Z,59.77
2023-11-26T20:00:07.455Z,59.75
2023-11-26T20:03:10.380Z,59.72
2023-11-26T20:05:07.422Z,59.84
2023-11-26T20:07:07.479Z,59.94
2023-11-26T20:09:07.503Z,59.80
2023-11-26T20:11:07.485Z,59.92
2023-11-26T20:16:07.624Z,59.98
2023-11-26T20:18:07.587Z,59.92
2023-11-26T20:20:07.501Z,59.94
2023-11-26T20:22:07.579Z,60.02
2023-11-26T20:24:07.519Z,59.95
2023-11-26T20:26:07.526Z,59.88
2023-11-26T20:28:07.501Z,59.98
2023-11-26T20:30:07.488Z,60.34
2023-11-26T20:32:07.540Z,60.62
2023-11-26T20:35:07.535Z,60.45
2023-11-26T20:37:07.612Z,60.58
2023-11-26T20:39:07.556Z,60.53
2023-11-26T20:41:07.592Z,60.45
2023-11-26T20:43:07.646Z,60.46
2023-11-26T20:46:07.656Z,60.47
2023-11-26T20:48:07.613Z,60.42
2023-11-26T20:50:07.627Z,60.62
2023-11-26T20:52:07.619Z,62.26
2023-11-26T20:54:07.555Z,62.72
2023-11-26T20:56:07.554Z,63.17
2023-11-26T20:58:07.609Z,63.86
2023-11-26T21:00:07.599Z,63.23
2023-11-26T21:02:07.689Z,62.81
2023-11-26T21:04:07.616Z,62.84
2023-11-26T21:06:07.622Z,61.84
2023-11-26T21:08:07.610Z,61.90
2023-11-26T21:11:08.720Z,61.73
2023-11-26T21:13:07.654Z,62.25
2023-11-26T21:15:07.587Z,62.37
2023-11-26T21:17:07.693Z,62.02
2023-11-26T21:19:07.705Z,61.54
2023-11-26T21:22:07.643Z,61.45
2023-11-26T21:24:09.952Z,61.28
2023-11-26T21:26:07.669Z,61.34
2023-11-26T21:28:07.661Z,61.18
2023-11-26T21:30:07.644Z,61.60
2023-11-26T21:32:07.677Z,62.83
2023-11-26T21:34:07.798Z,63.35
2023-11-26T21:36:07.661Z,63.23
2023-11-26T21:38:07.659Z,63.00
2023-11-26T21:40:07.731Z,63.09
2023-11-26T21:42:07.669Z,63.19
2023-11-26T21:44:07.662Z,62.93
2023-11-26T21:46:07.712Z,62.53
2023-11-26T21:48:07.732Z,61.99
2023-11-26T21:51:07.697Z,61.99
2023-11-26T21:53:07.724Z,61.82
2023-11-26T21:55:07.754Z,61.65
2023-11-26T21:57:07.732Z,61.60
2023-11-26T21:59:07.700Z,61.51
2023-11-26T22:01:07.861Z,61.70
2023-11-26T22:03:07.846Z,62.44
2023-11-26T22:05:07.749Z,62.49
2023-11-26T22:07:07.791Z,62.39
2023-11-26T22:09:07.737Z,62.13
2023-11-26T22:11:07.765Z,61.89
2023-11-26T22:13:07.836Z,61.73
2023-11-26T22:15:07.746Z,61.77
2023-11-26T22:17:07.778Z,61.95
2023-11-26T22:19:07.837Z,61.55
2023-11-26T22:21:07.798Z,61.53
2023-11-26T22:23:07.762Z,61.62
2023-11-26T22:25:07.821Z,61.62
2023-11-26T22:27:07.812Z,62.11
2023-11-26T22:29:07.807Z,62.45
2023-11-26T22:32:07.834Z,62.35
2023-11-26T22:34:07.871Z,62.34
2023-11-26T22:36:07.802Z,62.23
2023-11-26T22:41:07.821Z,62.12
2023-11-26T22:43:07.859Z,62.05
2023-11-26T22:46:07.893Z,61.91
2023-11-26T22:48:07.840Z,61.75
2023-11-26T22:50:07.848Z,61.69
2023-11-26T22:52:07.896Z,61.71
2023-11-26T22:55:07.938Z,61.78
2023-11-26T22:58:07.904Z,61.81
2023-11-26T23:00:07.881Z,61.87
2023-11-26T23:02:08.623Z,61.97
2023-11-26T23:04:07.934Z,62.05
2023-11-26T23:07:07.920Z,62.21
2023-11-26T23:09:07.896Z,62.17
2023-11-26T23:11:07.919Z,63.01
2023-11-26T23:13:07.973Z,63.36
2023-11-26T23:15:07.942Z,63.51
2023-11-26T23:17:07.908Z,63.45
2023-11-26T23:19:07.943Z,63.18
2023-11-26T23:21:07.905Z,63.00
2023-11-26T23:24:07.964Z,62.32
2023-11-26T23:26:07.942Z,62.69
2023-11-26T23:28:08.032Z,62.97
2023-11-26T23:30:07.955Z,62.94
2023-11-26T23:32:07.958Z,62.82
2023-11-26T23:34:08.071Z,62.62
2023-11-26T23:36:07.971Z,62.50
2023-11-26T23:39:07.985Z,62.39
2023-11-26T23:41:11.151Z,62.26
2023-11-26T23:43:08.037Z,62.21
2023-11-26T23:45:07.989Z,62.06
2023-11-26T23:47:07.999Z,62.19
2023-11-26T23:49:09.492Z,62.17
2023-11-26T23:51:07.966Z,62.21
2023-11-26T23:53:08.010Z,62.20
2023-11-26T23:58:08.097Z,62.11
